JES3047 SABE-SAZS
Flight info
| Callsign | JES3047 |
|---|---|
| Flight time | 1h 47m |
| Altitude | 36000 |
| Route | PAL9 TORUL UT654 ORERA ORER2Q |
| Aircraft | A320/M-SDE3FGHIRWY/LB1 |
Departure
| Time | 2026-04-20 22:44 |
|---|---|
| Airport | Aeroparque Jorge Newbery (SABE) |
Arrival
| Time | 2026-04-21 00:31 |
|---|---|
| Airport | Teniente Luis Candelaria International Airport (SAZS) |
| Time | Latitude | Longitude | Altitude | Speed | Heading |
|---|---|---|---|---|---|
| 2026-04-20 22:19 | -34.55632 | -58.41635 | 26 ft | 0 kts | 34° |
| 2026-04-20 22:22 | -34.55633 | -58.41635 | 25 ft | 0 kts | 34° |
| 2026-04-20 22:28 | -34.55634 | -58.41636 | 30 ft | 2 kts | 34° |
| 2026-04-20 22:29 | -34.55656 | -58.41654 | 27 ft | 4 kts | 34° |
| 2026-04-20 22:29 | -34.55674 | -58.41670 | 29 ft | 4 kts | 79° |
| 2026-04-20 22:29 | -34.55669 | -58.41693 | 29 ft | 1 kts | 124° |
| 2026-04-20 22:29 | -34.55658 | -58.41713 | 29 ft | 1 kts | 124° |
| 2026-04-20 22:32 | -34.55668 | -58.41694 | 29 ft | 4 kts | 124° |
| 2026-04-20 22:32 | -34.55683 | -58.41668 | 26 ft | 4 kts | 124° |
| 2026-04-20 22:32 | -34.55696 | -58.41643 | 28 ft | 3 kts | 124° |
| 2026-04-20 22:32 | -34.55714 | -58.41612 | 27 ft | 7 kts | 123° |
| 2026-04-20 22:33 | -34.55753 | -58.41581 | 27 ft | 8 kts | 186° |
| 2026-04-20 22:33 | -34.55783 | -58.41637 | 25 ft | 9 kts | 284° |
| 2026-04-20 22:33 | -34.55757 | -58.41702 | 29 ft | 9 kts | 297° |
| 2026-04-20 22:33 | -34.55729 | -58.41768 | 29 ft | 9 kts | 297° |
| 2026-04-20 22:34 | -34.55694 | -58.41831 | 27 ft | 9 kts | 304° |
| 2026-04-20 22:34 | -34.55659 | -58.41894 | 29 ft | 9 kts | 304° |
| 2026-04-20 22:34 | -34.55623 | -58.41958 | 27 ft | 9 kts | 304° |
| 2026-04-20 22:34 | -34.55588 | -58.42022 | 27 ft | 9 kts | 304° |
| 2026-04-20 22:35 | -34.55550 | -58.42084 | 28 ft | 9 kts | 308° |
| 2026-04-20 22:35 | -34.55511 | -58.42147 | 28 ft | 9 kts | 307° |
| 2026-04-20 22:35 | -34.55472 | -58.42209 | 28 ft | 10 kts | 307° |
| 2026-04-20 22:35 | -34.55436 | -58.42268 | 28 ft | 8 kts | 307° |
| 2026-04-20 22:36 | -34.55413 | -58.42306 | 26 ft | 0 kts | 307° |
| 2026-04-20 22:38 | -34.55402 | -58.42323 | 29 ft | 5 kts | 307° |
| 2026-04-20 22:39 | -34.55377 | -58.42361 | 27 ft | 6 kts | 307° |
| 2026-04-20 22:39 | -34.55375 | -58.42369 | 26 ft | 0 kts | 290° |
| 2026-04-20 22:41 | -34.55369 | -58.42389 | 29 ft | 6 kts | 285° |
| 2026-04-20 22:42 | -34.55360 | -58.42457 | 25 ft | 9 kts | 274° |
| 2026-04-20 22:42 | -34.55390 | -58.42515 | 28 ft | 7 kts | 218° |
| 2026-04-20 22:42 | -34.55409 | -58.42502 | 29 ft | 4 kts | 127° |
| 2026-04-20 22:42 | -34.55412 | -58.42496 | 29 ft | 1 kts | 124° |
| 2026-04-20 22:43 | -34.55416 | -58.42489 | 27 ft | 2 kts | 124° |
| 2026-04-20 22:43 | -34.55496 | -58.42347 | 28 ft | 52 kts | 124° |
| 2026-04-20 22:43 | -34.55812 | -58.41780 | 26 ft | 108 kts | 124° |
| 2026-04-20 22:43 | -34.56299 | -58.40907 | 238 ft | 131 kts | 123° |
| 2026-04-20 22:44 | -34.56789 | -58.40006 | 915 ft | 126 kts | 121° |
| 2026-04-20 22:44 | -34.57112 | -58.39401 | 1230 ft | 135 kts | 121° |
| 2026-04-20 22:44 | -34.57673 | -58.38373 | 1531 ft | 157 kts | 121° |
| 2026-04-20 22:44 | -34.58327 | -58.37190 | 1816 ft | 180 kts | 121° |
| 2026-04-20 22:45 | -34.59076 | -58.35856 | 2092 ft | 202 kts | 121° |
| 2026-04-20 22:45 | -34.59926 | -58.34354 | 2397 ft | 228 kts | 121° |
| 2026-04-20 22:45 | -34.61035 | -58.32827 | 2789 ft | 255 kts | 143° |
| 2026-04-20 22:45 | -34.62758 | -58.32110 | 3422 ft | 274 kts | 178° |
| 2026-04-20 22:46 | -34.64550 | -58.32710 | 4552 ft | 261 kts | 212° |
| 2026-04-20 22:46 | -34.65877 | -58.34104 | 5703 ft | 247 kts | 234° |
| 2026-04-20 22:46 | -34.66926 | -58.35708 | 6575 ft | 246 kts | 236° |
| 2026-04-20 22:46 | -34.68011 | -58.37391 | 7061 ft | 264 kts | 235° |
| 2026-04-20 22:47 | -34.69190 | -58.39225 | 7496 ft | 282 kts | 235° |
| 2026-04-20 22:47 | -34.70413 | -58.41117 | 8241 ft | 287 kts | 234° |
| 2026-04-20 22:47 | -34.71652 | -58.43028 | 9053 ft | 289 kts | 234° |
| 2026-04-20 22:47 | -34.72904 | -58.44955 | 9922 ft | 290 kts | 233° |
| 2026-04-20 22:48 | -34.74163 | -58.46899 | 10518 ft | 300 kts | 234° |
| 2026-04-20 22:48 | -34.75496 | -58.48972 | 10699 ft | 323 kts | 234° |
| 2026-04-20 22:48 | -34.76900 | -58.51149 | 11056 ft | 336 kts | 234° |
| 2026-04-20 22:48 | -34.78359 | -58.53405 | 11658 ft | 342 kts | 234° |
| 2026-04-20 22:49 | -34.79842 | -58.55690 | 12310 ft | 346 kts | 234° |
| 2026-04-20 22:49 | -34.81345 | -58.58001 | 12954 ft | 350 kts | 234° |
| 2026-04-20 22:49 | -34.82859 | -58.60339 | 13594 ft | 353 kts | 234° |
| 2026-04-20 22:49 | -34.84387 | -58.62707 | 14177 ft | 357 kts | 235° |
| 2026-04-20 22:50 | -34.85923 | -58.65095 | 14771 ft | 359 kts | 235° |
| 2026-04-20 22:50 | -34.87469 | -58.67497 | 15363 ft | 361 kts | 235° |
| 2026-04-20 22:50 | -34.89029 | -58.69920 | 15954 ft | 363 kts | 235° |
| 2026-04-20 22:50 | -34.90594 | -58.72354 | 16544 ft | 365 kts | 235° |
| 2026-04-20 22:51 | -34.92162 | -58.74799 | 17133 ft | 367 kts | 236° |
| 2026-04-20 22:51 | -34.93741 | -58.77263 | 17717 ft | 370 kts | 236° |
| 2026-04-20 22:51 | -34.95330 | -58.79740 | 18304 ft | 372 kts | 236° |
| 2026-04-20 22:51 | -34.96926 | -58.82229 | 18830 ft | 374 kts | 236° |
| 2026-04-20 22:52 | -34.98512 | -58.84702 | 19355 ft | 376 kts | 236° |
| 2026-04-20 22:52 | -35.00125 | -58.87220 | 19892 ft | 378 kts | 236° |
| 2026-04-20 22:52 | -35.01744 | -58.89752 | 20425 ft | 379 kts | 236° |
| 2026-04-20 22:52 | -35.03372 | -58.92301 | 20941 ft | 381 kts | 236° |
| 2026-04-20 22:53 | -35.05006 | -58.94859 | 21439 ft | 383 kts | 236° |
| 2026-04-20 22:53 | -35.06653 | -58.97436 | 21936 ft | 385 kts | 236° |
| 2026-04-20 22:53 | -35.08303 | -59.00021 | 22411 ft | 387 kts | 237° |
| 2026-04-20 22:53 | -35.09961 | -59.02622 | 22893 ft | 389 kts | 237° |
| 2026-04-20 22:54 | -35.11628 | -59.05241 | 23376 ft | 390 kts | 237° |
| 2026-04-20 22:54 | -35.13296 | -59.07861 | 23847 ft | 392 kts | 237° |
| 2026-04-20 22:54 | -35.14973 | -59.10493 | 24239 ft | 393 kts | 237° |
| 2026-04-20 22:54 | -35.16656 | -59.13139 | 24619 ft | 395 kts | 237° |
| 2026-04-20 22:55 | -35.18342 | -59.15798 | 24987 ft | 397 kts | 238° |
| 2026-04-20 22:55 | -35.20036 | -59.18472 | 25361 ft | 399 kts | 238° |
| 2026-04-20 22:55 | -35.21741 | -59.21162 | 25727 ft | 401 kts | 238° |
| 2026-04-20 22:55 | -35.23454 | -59.23865 | 26087 ft | 403 kts | 238° |
| 2026-04-20 22:56 | -35.25177 | -59.26581 | 26452 ft | 405 kts | 238° |
| 2026-04-20 22:56 | -35.26883 | -59.29277 | 26801 ft | 407 kts | 238° |
| 2026-04-20 22:56 | -35.28618 | -59.32025 | 27154 ft | 409 kts | 239° |
| 2026-04-20 22:56 | -35.30362 | -59.34788 | 27502 ft | 411 kts | 238° |
| 2026-04-20 22:57 | -35.32113 | -59.37563 | 27850 ft | 413 kts | 239° |
| 2026-04-20 22:57 | -35.33877 | -59.40362 | 28203 ft | 416 kts | 239° |
| 2026-04-20 22:57 | -35.35645 | -59.43168 | 28564 ft | 418 kts | 239° |
| 2026-04-20 22:57 | -35.37405 | -59.46003 | 28911 ft | 419 kts | 240° |
| 2026-04-20 22:58 | -35.39131 | -59.48895 | 29254 ft | 420 kts | 241° |
| 2026-04-20 22:58 | -35.40833 | -59.51818 | 29583 ft | 422 kts | 241° |
| 2026-04-20 22:58 | -35.42529 | -59.54763 | 29964 ft | 423 kts | 242° |
| 2026-04-20 22:58 | -35.44224 | -59.57703 | 30405 ft | 422 kts | 242° |
| 2026-04-20 22:59 | -35.45924 | -59.60634 | 30829 ft | 421 kts | 241° |
| 2026-04-20 22:59 | -35.47623 | -59.63552 | 31184 ft | 421 kts | 241° |
| 2026-04-20 22:59 | -35.49329 | -59.66478 | 31552 ft | 421 kts | 242° |
| 2026-04-20 22:59 | -35.51031 | -59.69398 | 31948 ft | 420 kts | 242° |
| 2026-04-20 23:00 | -35.52730 | -59.72317 | 32379 ft | 419 kts | 242° |
| 2026-04-20 23:00 | -35.54418 | -59.75221 | 32804 ft | 418 kts | 242° |
| 2026-04-20 23:00 | -35.56103 | -59.78121 | 33236 ft | 416 kts | 243° |
| 2026-04-20 23:00 | -35.57783 | -59.81010 | 33666 ft | 415 kts | 243° |
| 2026-04-20 23:01 | -35.59457 | -59.83886 | 34101 ft | 414 kts | 243° |
| 2026-04-20 23:01 | -35.61131 | -59.86761 | 34461 ft | 413 kts | 243° |
| 2026-04-20 23:01 | -35.62797 | -59.89624 | 34827 ft | 411 kts | 243° |
| 2026-04-20 23:01 | -35.64454 | -59.92479 | 35172 ft | 410 kts | 244° |
| 2026-04-20 23:02 | -35.66099 | -59.95313 | 35511 ft | 408 kts | 244° |
| 2026-04-20 23:02 | -35.67741 | -59.98156 | 35836 ft | 407 kts | 244° |
| 2026-04-20 23:02 | -35.69379 | -60.01002 | 36075 ft | 407 kts | 244° |
| 2026-04-20 23:02 | -35.71025 | -60.03866 | 36112 ft | 412 kts | 244° |
| 2026-04-20 23:03 | -35.74330 | -60.09617 | 36110 ft | 415 kts | 244° |
| 2026-04-20 23:03 | -35.77676 | -60.15416 | 36114 ft | 415 kts | 244° |
| 2026-04-20 23:04 | -35.81024 | -60.21227 | 36113 ft | 417 kts | 244° |
| 2026-04-20 23:04 | -35.84377 | -60.27065 | 36108 ft | 418 kts | 244° |
| 2026-04-20 23:05 | -35.87731 | -60.32916 | 36122 ft | 418 kts | 244° |
| 2026-04-20 23:05 | -35.91080 | -60.38785 | 36125 ft | 418 kts | 244° |
| 2026-04-20 23:06 | -35.94430 | -60.44656 | 36150 ft | 418 kts | 244° |
| 2026-04-20 23:06 | -35.97788 | -60.50547 | 36118 ft | 421 kts | 245° |
| 2026-04-20 23:07 | -36.01205 | -60.56578 | 36120 ft | 435 kts | 245° |
| 2026-04-20 23:07 | -36.04680 | -60.62688 | 36122 ft | 438 kts | 244° |
| 2026-04-20 23:08 | -36.08186 | -60.68860 | 36125 ft | 439 kts | 245° |
| 2026-04-20 23:08 | -36.11688 | -60.75046 | 36125 ft | 439 kts | 245° |
| 2026-04-20 23:09 | -36.15189 | -60.81225 | 36125 ft | 438 kts | 245° |
| 2026-04-20 23:09 | -36.18658 | -60.87426 | 36136 ft | 438 kts | 245° |
| 2026-04-20 23:10 | -36.22120 | -60.93644 | 36139 ft | 438 kts | 245° |
| 2026-04-20 23:10 | -36.25580 | -60.99862 | 36143 ft | 438 kts | 245° |
| 2026-04-20 23:11 | -36.29056 | -61.06092 | 36161 ft | 439 kts | 245° |
| 2026-04-20 23:11 | -36.32508 | -61.12285 | 36156 ft | 439 kts | 245° |
| 2026-04-20 23:12 | -36.35969 | -61.18524 | 36186 ft | 439 kts | 245° |
| 2026-04-20 23:12 | -36.39426 | -61.24775 | 36177 ft | 440 kts | 245° |
| 2026-04-20 23:13 | -36.42887 | -61.31030 | 36170 ft | 440 kts | 245° |
| 2026-04-20 23:13 | -36.46341 | -61.37301 | 36178 ft | 440 kts | 246° |
| 2026-04-20 23:14 | -36.49801 | -61.43593 | 36162 ft | 441 kts | 245° |
| 2026-04-20 23:14 | -36.53271 | -61.49898 | 36164 ft | 442 kts | 245° |
| 2026-04-20 23:15 | -36.56736 | -61.56213 | 36163 ft | 442 kts | 246° |
| 2026-04-20 23:15 | -36.60200 | -61.62543 | 36165 ft | 443 kts | 245° |
| 2026-04-20 23:16 | -36.63666 | -61.68875 | 36166 ft | 442 kts | 246° |
| 2026-04-20 23:16 | -36.67123 | -61.75216 | 36167 ft | 442 kts | 246° |
| 2026-04-20 23:17 | -36.70573 | -61.81561 | 36171 ft | 442 kts | 246° |
| 2026-04-20 23:17 | -36.74025 | -61.87906 | 36170 ft | 442 kts | 246° |
| 2026-04-20 23:18 | -36.77474 | -61.94253 | 36191 ft | 443 kts | 245° |
| 2026-04-20 23:18 | -36.80919 | -62.00616 | 36156 ft | 442 kts | 246° |
| 2026-04-20 23:19 | -36.84340 | -62.06949 | 36155 ft | 443 kts | 246° |
| 2026-04-20 23:19 | -36.87787 | -62.13348 | 36151 ft | 444 kts | 245° |
| 2026-04-20 23:20 | -36.91236 | -62.19751 | 36155 ft | 444 kts | 245° |
| 2026-04-20 23:20 | -36.94694 | -62.26173 | 36178 ft | 445 kts | 245° |
| 2026-04-20 23:21 | -36.98144 | -62.32597 | 36168 ft | 445 kts | 245° |
| 2026-04-20 23:21 | -37.01589 | -62.39045 | 36174 ft | 445 kts | 245° |
| 2026-04-20 23:22 | -37.05033 | -62.45496 | 36177 ft | 446 kts | 245° |
| 2026-04-20 23:22 | -37.08483 | -62.51958 | 36181 ft | 446 kts | 245° |
| 2026-04-20 23:23 | -37.11902 | -62.58383 | 36200 ft | 446 kts | 245° |
| 2026-04-20 23:23 | -37.15329 | -62.64847 | 36193 ft | 446 kts | 245° |
| 2026-04-20 23:24 | -37.18762 | -62.71323 | 36211 ft | 446 kts | 245° |
| 2026-04-20 23:24 | -37.22197 | -62.77812 | 36206 ft | 446 kts | 245° |
| 2026-04-20 23:25 | -37.25628 | -62.84314 | 36218 ft | 446 kts | 244° |
| 2026-04-20 23:25 | -37.29056 | -62.90816 | 36211 ft | 446 kts | 244° |
| 2026-04-20 23:26 | -37.32464 | -62.97290 | 36207 ft | 446 kts | 244° |
| 2026-04-20 23:26 | -37.35890 | -63.03827 | 36206 ft | 447 kts | 244° |
| 2026-04-20 23:27 | -37.39314 | -63.10349 | 36203 ft | 447 kts | 244° |
| 2026-04-20 23:27 | -37.42749 | -63.16879 | 36237 ft | 447 kts | 244° |
| 2026-04-20 23:28 | -37.45603 | -63.22303 | 36224 ft | 447 kts | 244° |
| 2026-04-20 23:28 | -37.49576 | -63.29905 | 36220 ft | 447 kts | 244° |
| 2026-04-20 23:29 | -37.52982 | -63.36449 | 36212 ft | 447 kts | 244° |
| 2026-04-20 23:29 | -37.56398 | -63.42992 | 36209 ft | 447 kts | 244° |
| 2026-04-20 23:30 | -37.59234 | -63.48444 | 36239 ft | 447 kts | 244° |
| 2026-04-20 23:30 | -37.62640 | -63.55018 | 36229 ft | 448 kts | 244° |
| 2026-04-20 23:31 | -37.66046 | -63.61599 | 36223 ft | 448 kts | 244° |
| 2026-04-20 23:31 | -37.69456 | -63.68198 | 36217 ft | 448 kts | 244° |
| 2026-04-20 23:32 | -37.72861 | -63.74803 | 36241 ft | 448 kts | 244° |
| 2026-04-20 23:32 | -37.76264 | -63.81407 | 36220 ft | 449 kts | 244° |
| 2026-04-20 23:33 | -37.79678 | -63.88035 | 36220 ft | 449 kts | 244° |
| 2026-04-20 23:33 | -37.83077 | -63.94670 | 36215 ft | 450 kts | 244° |
| 2026-04-20 23:34 | -37.86450 | -64.01276 | 36218 ft | 450 kts | 244° |
| 2026-04-20 23:34 | -37.89870 | -64.07972 | 36246 ft | 450 kts | 244° |
| 2026-04-20 23:35 | -37.94958 | -64.17937 | 36233 ft | 451 kts | 244° |
| 2026-04-20 23:36 | -37.98356 | -64.24616 | 36236 ft | 451 kts | 244° |
| 2026-04-20 23:36 | -38.01751 | -64.31322 | 36226 ft | 452 kts | 243° |
| 2026-04-20 23:37 | -38.05152 | -64.38046 | 36251 ft | 453 kts | 243° |
| 2026-04-20 23:37 | -38.08551 | -64.44783 | 36237 ft | 453 kts | 243° |
| 2026-04-20 23:38 | -38.11951 | -64.51530 | 36231 ft | 454 kts | 243° |
| 2026-04-20 23:38 | -38.15349 | -64.58295 | 36228 ft | 454 kts | 243° |
| 2026-04-20 23:39 | -38.18721 | -64.65027 | 36228 ft | 454 kts | 243° |
| 2026-04-20 23:39 | -38.22109 | -64.71805 | 36229 ft | 454 kts | 244° |
| 2026-04-20 23:40 | -38.25483 | -64.78590 | 36227 ft | 454 kts | 244° |
| 2026-04-20 23:40 | -38.28858 | -64.85383 | 36227 ft | 454 kts | 244° |
| 2026-04-20 23:41 | -38.32232 | -64.92179 | 36226 ft | 454 kts | 244° |
| 2026-04-20 23:41 | -38.35605 | -64.98985 | 36241 ft | 454 kts | 243° |
| 2026-04-20 23:42 | -38.38974 | -65.05796 | 36227 ft | 454 kts | 243° |
| 2026-04-20 23:42 | -38.42348 | -65.12627 | 36218 ft | 455 kts | 243° |
| 2026-04-20 23:43 | -38.45693 | -65.19410 | 36220 ft | 455 kts | 243° |
| 2026-04-20 23:43 | -38.49072 | -65.26288 | 36218 ft | 455 kts | 244° |
| 2026-04-20 23:44 | -38.52406 | -65.33096 | 36233 ft | 455 kts | 243° |
| 2026-04-20 23:44 | -38.55761 | -65.39949 | 36223 ft | 455 kts | 243° |
| 2026-04-20 23:45 | -38.59109 | -65.46812 | 36220 ft | 455 kts | 243° |
| 2026-04-20 23:45 | -38.62454 | -65.53691 | 36216 ft | 455 kts | 243° |
| 2026-04-20 23:46 | -38.65802 | -65.60573 | 36214 ft | 455 kts | 243° |
| 2026-04-20 23:46 | -38.69145 | -65.67462 | 36222 ft | 456 kts | 243° |
| 2026-04-20 23:47 | -38.72494 | -65.74372 | 36219 ft | 456 kts | 243° |
| 2026-04-20 23:47 | -38.75836 | -65.81286 | 36219 ft | 456 kts | 242° |
| 2026-04-20 23:48 | -38.79173 | -65.88219 | 36206 ft | 457 kts | 242° |
| 2026-04-20 23:48 | -38.82515 | -65.95168 | 36217 ft | 458 kts | 242° |
| 2026-04-20 23:49 | -38.85863 | -66.02146 | 36194 ft | 460 kts | 242° |
| 2026-04-20 23:49 | -38.89218 | -66.09158 | 36192 ft | 461 kts | 242° |
| 2026-04-20 23:50 | -38.92574 | -66.16189 | 36194 ft | 462 kts | 242° |
| 2026-04-20 23:50 | -38.95931 | -66.23246 | 36197 ft | 463 kts | 242° |
| 2026-04-20 23:51 | -38.99286 | -66.30315 | 36207 ft | 464 kts | 241° |
| 2026-04-20 23:51 | -39.02614 | -66.37371 | 36198 ft | 465 kts | 241° |
| 2026-04-20 23:52 | -39.05970 | -66.44488 | 36195 ft | 466 kts | 241° |
| 2026-04-20 23:52 | -39.09341 | -66.51625 | 36201 ft | 466 kts | 241° |
| 2026-04-20 23:53 | -39.12702 | -66.58774 | 36216 ft | 467 kts | 241° |
| 2026-04-20 23:53 | -39.16054 | -66.65943 | 36204 ft | 468 kts | 240° |
| 2026-04-20 23:54 | -39.19418 | -66.73138 | 36201 ft | 469 kts | 240° |
| 2026-04-20 23:54 | -39.22781 | -66.80340 | 36201 ft | 469 kts | 240° |
| 2026-04-20 23:55 | -39.26145 | -66.87560 | 36207 ft | 469 kts | 241° |
| 2026-04-20 23:55 | -39.29490 | -66.94744 | 36212 ft | 469 kts | 240° |
| 2026-04-20 23:56 | -39.32842 | -67.01970 | 36216 ft | 469 kts | 240° |
| 2026-04-20 23:56 | -39.36180 | -67.09207 | 36214 ft | 469 kts | 240° |
| 2026-04-20 23:57 | -39.39520 | -67.16441 | 36212 ft | 469 kts | 240° |
| 2026-04-20 23:57 | -39.42859 | -67.23692 | 36215 ft | 468 kts | 239° |
| 2026-04-20 23:58 | -39.46192 | -67.30942 | 36214 ft | 468 kts | 239° |
| 2026-04-20 23:58 | -39.49520 | -67.38198 | 36211 ft | 468 kts | 239° |
| 2026-04-20 23:59 | -39.52840 | -67.45456 | 36203 ft | 468 kts | 239° |
| 2026-04-20 23:59 | -39.56153 | -67.52719 | 36199 ft | 469 kts | 239° |
| 2026-04-21 00:00 | -39.59467 | -67.60000 | 36203 ft | 469 kts | 238° |
| 2026-04-21 00:00 | -39.62773 | -67.67285 | 36207 ft | 469 kts | 238° |
| 2026-04-21 00:01 | -39.66054 | -67.74529 | 36206 ft | 469 kts | 238° |
| 2026-04-21 00:01 | -39.69359 | -67.81831 | 36205 ft | 468 kts | 238° |
| 2026-04-21 00:02 | -39.72650 | -67.89137 | 36205 ft | 468 kts | 238° |
| 2026-04-21 00:02 | -39.75932 | -67.96447 | 36207 ft | 469 kts | 238° |
| 2026-04-21 00:03 | -39.79213 | -68.03763 | 36207 ft | 469 kts | 238° |
| 2026-04-21 00:03 | -39.82539 | -68.11050 | 36208 ft | 468 kts | 236° |
| 2026-04-21 00:04 | -39.86127 | -68.18117 | 36207 ft | 468 kts | 234° |
| 2026-04-21 00:04 | -39.89802 | -68.25101 | 36187 ft | 468 kts | 233° |
| 2026-04-21 00:05 | -39.93435 | -68.32155 | 36188 ft | 469 kts | 233° |
| 2026-04-21 00:05 | -39.97016 | -68.39267 | 36193 ft | 469 kts | 234° |
| 2026-04-21 00:06 | -40.00589 | -68.46400 | 36193 ft | 470 kts | 234° |
| 2026-04-21 00:06 | -40.04152 | -68.53489 | 36181 ft | 470 kts | 233° |
| 2026-04-21 00:07 | -40.07733 | -68.60624 | 36192 ft | 470 kts | 233° |
| 2026-04-21 00:07 | -40.11316 | -68.67757 | 36199 ft | 469 kts | 233° |
| 2026-04-21 00:08 | -40.14885 | -68.74908 | 36201 ft | 469 kts | 233° |
| 2026-04-21 00:08 | -40.18447 | -68.82062 | 36203 ft | 469 kts | 233° |
| 2026-04-21 00:09 | -40.22004 | -68.89214 | 36195 ft | 469 kts | 232° |
| 2026-04-21 00:09 | -40.25559 | -68.96360 | 36197 ft | 468 kts | 232° |
| 2026-04-21 00:10 | -40.29100 | -69.03522 | 36206 ft | 468 kts | 232° |
| 2026-04-21 00:10 | -40.32627 | -69.10684 | 36210 ft | 467 kts | 232° |
| 2026-04-21 00:11 | -40.36138 | -69.17818 | 36195 ft | 456 kts | 232° |
| 2026-04-21 00:11 | -40.37850 | -69.21301 | 35485 ft | 457 kts | 232° |
| 2026-04-21 00:11 | -40.39593 | -69.24825 | 34617 ft | 463 kts | 231° |
| 2026-04-21 00:11 | -40.41348 | -69.28379 | 33836 ft | 465 kts | 231° |
| 2026-04-21 00:12 | -40.43095 | -69.31937 | 33139 ft | 464 kts | 232° |
| 2026-04-21 00:12 | -40.44836 | -69.35498 | 32461 ft | 462 kts | 232° |
| 2026-04-21 00:12 | -40.46568 | -69.39046 | 31882 ft | 458 kts | 232° |
| 2026-04-21 00:12 | -40.48282 | -69.42552 | 31335 ft | 454 kts | 232° |
| 2026-04-21 00:13 | -40.49958 | -69.45984 | 30822 ft | 450 kts | 232° |
| 2026-04-21 00:13 | -40.51656 | -69.49475 | 30288 ft | 445 kts | 232° |
| 2026-04-21 00:13 | -40.53312 | -69.52885 | 29651 ft | 441 kts | 232° |
| 2026-04-21 00:13 | -40.54932 | -69.56222 | 29058 ft | 436 kts | 232° |
| 2026-04-21 00:14 | -40.56559 | -69.59573 | 28429 ft | 432 kts | 233° |
| 2026-04-21 00:14 | -40.58170 | -69.62888 | 27823 ft | 429 kts | 233° |
| 2026-04-21 00:14 | -40.59778 | -69.66199 | 27145 ft | 428 kts | 233° |
| 2026-04-21 00:14 | -40.60843 | -69.68394 | 26843 ft | 423 kts | 233° |
| 2026-04-21 00:15 | -40.62419 | -69.71641 | 26354 ft | 418 kts | 233° |
| 2026-04-21 00:15 | -40.64473 | -69.75882 | 25761 ft | 412 kts | 233° |
| 2026-04-21 00:15 | -40.66002 | -69.79044 | 25318 ft | 407 kts | 233° |
| 2026-04-21 00:15 | -40.67515 | -69.82183 | 24876 ft | 404 kts | 233° |
| 2026-04-21 00:16 | -40.68509 | -69.84247 | 24586 ft | 401 kts | 233° |
| 2026-04-21 00:16 | -40.69999 | -69.87342 | 24141 ft | 399 kts | 233° |
| 2026-04-21 00:16 | -40.71482 | -69.90422 | 23692 ft | 397 kts | 233° |
| 2026-04-21 00:16 | -40.72954 | -69.93479 | 23194 ft | 393 kts | 233° |
| 2026-04-21 00:17 | -40.74412 | -69.96516 | 22738 ft | 389 kts | 233° |
| 2026-04-21 00:17 | -40.75853 | -69.99522 | 22289 ft | 385 kts | 233° |
| 2026-04-21 00:17 | -40.77283 | -70.02505 | 21821 ft | 382 kts | 234° |
| 2026-04-21 00:17 | -40.78695 | -70.05451 | 21356 ft | 378 kts | 234° |
| 2026-04-21 00:18 | -40.80094 | -70.08374 | 20885 ft | 375 kts | 234° |
| 2026-04-21 00:18 | -40.81485 | -70.11283 | 20414 ft | 373 kts | 234° |
| 2026-04-21 00:18 | -40.82862 | -70.14169 | 19939 ft | 370 kts | 234° |
| 2026-04-21 00:18 | -40.84229 | -70.17036 | 19467 ft | 367 kts | 235° |
| 2026-04-21 00:19 | -40.85567 | -70.19841 | 19009 ft | 365 kts | 235° |
| 2026-04-21 00:19 | -40.86934 | -70.22709 | 18528 ft | 363 kts | 235° |
| 2026-04-21 00:19 | -40.88257 | -70.25490 | 18021 ft | 361 kts | 236° |
| 2026-04-21 00:19 | -40.89585 | -70.28286 | 17553 ft | 357 kts | 236° |
| 2026-04-21 00:20 | -40.90899 | -70.31055 | 17098 ft | 353 kts | 236° |
| 2026-04-21 00:20 | -40.92199 | -70.33794 | 16634 ft | 350 kts | 236° |
| 2026-04-21 00:20 | -40.93486 | -70.36510 | 16186 ft | 347 kts | 236° |
| 2026-04-21 00:20 | -40.94761 | -70.39204 | 15727 ft | 344 kts | 236° |
| 2026-04-21 00:21 | -40.96026 | -70.41876 | 15285 ft | 342 kts | 236° |
| 2026-04-21 00:21 | -40.97293 | -70.44528 | 14819 ft | 340 kts | 234° |
| 2026-04-21 00:21 | -40.98753 | -70.46970 | 14366 ft | 337 kts | 229° |
| 2026-04-21 00:21 | -41.00241 | -70.49366 | 13902 ft | 336 kts | 230° |
| 2026-04-21 00:22 | -41.01716 | -70.51745 | 13439 ft | 333 kts | 230° |
| 2026-04-21 00:22 | -41.03180 | -70.54110 | 12941 ft | 330 kts | 230° |
| 2026-04-21 00:22 | -41.04628 | -70.56452 | 12528 ft | 327 kts | 230° |
| 2026-04-21 00:22 | -41.06064 | -70.58781 | 12088 ft | 325 kts | 230° |
| 2026-04-21 00:23 | -41.07492 | -70.61099 | 11647 ft | 323 kts | 230° |
| 2026-04-21 00:23 | -41.08892 | -70.63377 | 11224 ft | 321 kts | 231° |
| 2026-04-21 00:23 | -41.10301 | -70.65672 | 10782 ft | 320 kts | 231° |
| 2026-04-21 00:23 | -41.11701 | -70.67954 | 10409 ft | 317 kts | 231° |
| 2026-04-21 00:24 | -41.13065 | -70.70179 | 10293 ft | 305 kts | 231° |
| 2026-04-21 00:24 | -41.14383 | -70.72325 | 10169 ft | 295 kts | 231° |
| 2026-04-21 00:24 | -41.15662 | -70.74405 | 9961 ft | 288 kts | 231° |
| 2026-04-21 00:24 | -41.16911 | -70.76442 | 9793 ft | 279 kts | 231° |
| 2026-04-21 00:25 | -41.18097 | -70.78384 | 9660 ft | 266 kts | 231° |
| 2026-04-21 00:25 | -41.19229 | -70.80239 | 9383 ft | 254 kts | 231° |
| 2026-04-21 00:25 | -41.20332 | -70.82050 | 8919 ft | 251 kts | 231° |
| 2026-04-21 00:25 | -41.21433 | -70.83854 | 8303 ft | 254 kts | 231° |
| 2026-04-21 00:26 | -41.22560 | -70.85700 | 7615 ft | 260 kts | 232° |
| 2026-04-21 00:26 | -41.23560 | -70.87689 | 7102 ft | 256 kts | 250° |
| 2026-04-21 00:26 | -41.23816 | -70.89956 | 6799 ft | 245 kts | 276° |
| 2026-04-21 00:26 | -41.23333 | -70.92069 | 6511 ft | 235 kts | 294° |
| 2026-04-21 00:27 | -41.22661 | -70.94000 | 6195 ft | 226 kts | 294° |
| 2026-04-21 00:27 | -41.22018 | -70.95857 | 5868 ft | 217 kts | 294° |
| 2026-04-21 00:27 | -41.21405 | -70.97628 | 5608 ft | 208 kts | 294° |
| 2026-04-21 00:27 | -41.20821 | -70.99317 | 5345 ft | 195 kts | 294° |
| 2026-04-21 00:28 | -41.20279 | -71.00885 | 5082 ft | 178 kts | 294° |
| 2026-04-21 00:28 | -41.19785 | -71.02312 | 4856 ft | 162 kts | 294° |
| 2026-04-21 00:28 | -41.19338 | -71.03602 | 4618 ft | 148 kts | 294° |
| 2026-04-21 00:28 | -41.18916 | -71.04823 | 4390 ft | 144 kts | 294° |
| 2026-04-21 00:29 | -41.18501 | -71.06019 | 4181 ft | 142 kts | 294° |
| 2026-04-21 00:29 | -41.18090 | -71.07206 | 3971 ft | 141 kts | 294° |
| 2026-04-21 00:29 | -41.17681 | -71.08384 | 3788 ft | 140 kts | 294° |
| 2026-04-21 00:29 | -41.17274 | -71.09557 | 3604 ft | 140 kts | 294° |
| 2026-04-21 00:30 | -41.16867 | -71.10731 | 3430 ft | 140 kts | 294° |
| 2026-04-21 00:30 | -41.16459 | -71.11913 | 3229 ft | 142 kts | 294° |
| 2026-04-21 00:30 | -41.16045 | -71.13109 | 3034 ft | 143 kts | 294° |
| 2026-04-21 00:30 | -41.15623 | -71.14307 | 2828 ft | 143 kts | 295° |
| 2026-04-21 00:31 | -41.15218 | -71.15470 | 2753 ft | 126 kts | 294° |
| 2026-04-21 00:31 | -41.14962 | -71.16200 | 2756 ft | 43 kts | 295° |
| 2026-04-21 00:31 | -41.14888 | -71.16338 | 2754 ft | 10 kts | 13° |
| 2026-04-21 00:31 | -41.14828 | -71.16300 | 2751 ft | 11 kts | 26° |
| 2026-04-21 00:32 | -41.14766 | -71.16260 | 2749 ft | 8 kts | 25° |
| 2026-04-21 00:32 | -41.14723 | -71.16211 | 2749 ft | 4 kts | 57° |
| 2026-04-21 00:32 | -41.14702 | -71.16168 | 2750 ft | 5 kts | 59° |
| 2026-04-21 00:32 | -41.14699 | -71.16160 | 2749 ft | 0 kts | 59° |
| 2026-04-21 00:33 | -41.14697 | -71.16156 | 2749 ft | 0 kts | 58° |